LEBB/BIO METAR and TAF weather

Enter ICAO airport designator
Station Type Date Time Source
LEBB METAR 2021/05/13 00:00 UTC NOAA

LEBB 130000Z AUTO 09005KT 9999 SCT070 10/08 Q1019


Station Type Date Time Source
LEBB Decoded METAR 2021/05/13 00:00 UTC NOAA

Bilbao / Sondica, Spain (LEBB) 43-18N 002-56W 37M
May 12, 2021 - 08:00 PM EDT / 2021.05.13 0000 UTC
Wind: from the E (090 degrees) at 6 MPH (5 KT):0
Visibility: greater than 7 mile(s):0
Sky conditions: partly cloudy
Temperature: 50 F (10 C)
Dew Point: 46 F (8 C)
Relative Humidity: 87%
Pressure (altimeter): 30.09 in. Hg (1019 hPa)
ob: LEBB 130000Z AUTO 09005KT 9999 SCT070 10/08 Q1019
cycle: 0

Station Type Date Time Source
LEBB TAF 2021/05/12 18:27 UTC NOAA

TAF LEBB 121700Z 1218/1318 28012KT 9999 SCT020 BKN030 TX18/1310Z TN07/1303Z
TEMPO 1218/1219 29017G28KT
BECMG 1218/1222 VRB05KT
TEMPO 1312/1318 30012G22KT 3000 RA BKN010

Example: see airport list